GCLP METAR and TAF | Updated Today

GCLP METAR

Gran Canaria Airport

Observation time: 13 min. ago

GCLP 070900Z 34008KT 300V360 9999 FEW040 18/13 Q1025 NOSIG

Need help? Read our tutorial on how to read METARs or read the parsed version below.

Gran Canaria Airport (GCLP) METAR

  • Weather conditions on Tue, 07 Dec 2021 09:00:00 +0000 (13 min. ago):
  • Present conditions: Dry
  • Clouds: A few at 1219 meters
  • Visibility: Greater than 10 km
  • Wind: 340 degrees at 8 knots
  • Temperature: 18 celsius
  • Dew point: 13 celsius
  • Pressure: 1025 millibars
  • Remarks: None


Useful to know...

GCLP TAF

Gran Canaria Airport

TAF GCLP 070800Z 0709/0809 36005KT 9999 SCT040 TX22/0713Z TN17/0806Z
Observation time: 73 min. ago
Need help? Read our tutorial on how to read TAFs or read the parsed version below.

Parsed version of TAF for Gran Canaria Airport (GCLP)

  • From 07 December at 09:00 UTC, to day 08 of the month at 09:00 UTC
  • Clouds: Scattered at 1219 meters
  • Visibility: Greater than 10 km
  • Wind: 360 degrees at 5

Airports near GCLP

No airports found within 100nm radius.